Time;durP1;ratioP1;P1;durP2;ratioP2;P2;SDS_P1;SDS_P2;PMS_P1;PMS_P2;Temp;Humidity;BMP_temperature;BMP_pressure;BME280_temperature;BME280_humidity;BME280_pressure;Samples;Min_cycle;Max_cycle;Signal;HPM_P1;HPM_P2
2021/07/24 00:00:18;;;;;;;2.95;2.30;;;;;;;;;;4167001;28;20154;-57
2021/07/24 00:02:20;;;;;;;2.95;2.30;;;;;;;;;;4166451;28;20170;-58
2021/07/24 00:04:22;;;;;;;2.22;2.00;;;;;;;;;;4169609;28;20045;-57
2021/07/24 00:06:24;;;;;;;3.72;2.53;;;;;;;;;;4160608;28;20040;-55
2021/07/24 00:08:26;;;;;;;3.17;2.03;;;;;;;;;;4161844;28;20737;-55
2021/07/24 00:10:28;;;;;;;2.72;1.90;;;;;;;;;;4163584;28;20102;-55
2021/07/24 00:12:30;;;;;;;4.07;2.10;;;;;;;;;;4167775;28;20104;-50
2021/07/24 00:14:32;;;;;;;2.10;1.90;;;;;;;;;;4163952;28;20575;-54
2021/07/24 00:16:34;;;;;;;2.70;2.10;;;;;;;;;;4165959;28;20377;-51
2021/07/24 00:18:36;;;;;;;3.15;1.92;;;;;;;;;;4160860;28;20514;-50
2021/07/24 00:20:38;;;;;;;2.95;2.10;;;;;;;;;;4160097;28;20036;-55
2021/07/24 00:22:40;;;;;;;2.60;2.10;;;;;;;;;;4156619;28;20041;-58
2021/07/24 00:24:42;;;;;;;2.80;2.08;;;;;;;;;;4165534;28;20032;-52
2021/07/24 00:26:46;;;;;;;1.90;1.70;;;;;;;;;;4162977;28;20054;-53
2021/07/24 00:28:49;;;;;;;5.05;2.30;;;;;;;;;;4167144;28;20024;-56
2021/07/24 00:30:51;;;;;;;2.58;1.90;;;;;;;;;;4162228;28;20036;-57
2021/07/24 00:32:53;;;;;;;2.17;1.88;;;;;;;;;;4163364;28;20044;-46
2021/07/24 00:34:55;;;;;;;2.67;1.50;;;;;;;;;;4162615;28;20592;-48
2021/07/24 00:36:58;;;;;;;2.45;1.88;;;;;;;;;;4163508;28;20524;-50
2021/07/24 00:39:00;;;;;;;2.70;1.95;;;;;;;;;;4164292;28;20039;-54
2021/07/24 00:41:04;;;;;;;2.70;1.90;;;;;;;;;;4167176;28;20509;-49
2021/07/24 00:43:08;;;;;;;2.92;1.92;;;;;;;;;;4164345;28;20452;-52
2021/07/24 00:45:14;;;;;;;2.10;1.90;;;;;;;;;;4165892;28;20021;-53
2021/07/24 00:47:20;;;;;;;2.90;1.70;;;;;;;;;;4163005;28;20040;-54
2021/07/24 00:49:23;;;;;;;5.95;2.00;;;;;;;;;;4167965;28;20035;-52
2021/07/24 00:51:32;;;;;;;5.93;2.33;;;;;;;;;;4165416;28;20036;-45
2021/07/24 00:53:37;;;;;;;7.72;2.35;;;;;;;;;;4165321;28;20774;-45
2021/07/24 00:55:39;;;;;;;2.78;1.95;;;;;;;;;;4166735;28;20155;-49
2021/07/24 00:57:41;;;;;;;4.25;2.70;;;;;;;;;;4164673;28;20036;-45
2021/07/24 00:59:43;;;;;;;5.97;3.10;;;;;;;;;;4167005;28;20036;-45
2021/07/24 01:01:46;;;;;;;4.53;2.50;;;;;;;;;;4161839;28;20067;-48
2021/07/24 01:03:49;;;;;;;6.45;2.53;;;;;;;;;;4167826;28;20934;-51
2021/07/24 01:05:52;;;;;;;5.18;2.40;;;;;;;;;;4163271;28;20028;-46
2021/07/24 01:07:54;;;;;;;4.15;2.33;;;;;;;;;;4164521;28;20450;-45
2021/07/24 01:09:58;;;;;;;2.88;2.20;;;;;;;;;;4158700;28;20533;-45
2021/07/24 01:12:02;;;;;;;2.15;1.90;;;;;;;;;;4161483;28;20556;-44
2021/07/24 01:14:04;;;;;;;2.85;1.90;;;;;;;;;;4159225;28;20333;-45
2021/07/24 01:16:07;;;;;;;5.22;2.00;;;;;;;;;;4162982;28;20430;-49
2021/07/24 01:18:09;;;;;;;2.83;1.98;;;;;;;;;;4162525;28;20033;-45
2021/07/24 01:20:11;;;;;;;2.72;2.00;;;;;;;;;;4163961;28;20041;-46
2021/07/24 01:22:13;;;;;;;2.75;2.00;;;;;;;;;;4155352;28;20093;-44
2021/07/24 01:24:15;;;;;;;2.72;2.00;;;;;;;;;;4162553;28;20500;-44
2021/07/24 01:26:27;;;;;;;3.35;1.88;;;;;;;;;;4162098;28;20057;-45
2021/07/24 01:28:30;;;;;;;1.90;1.40;;;;;;;;;;4167590;28;20397;-46
2021/07/24 01:30:32;;;;;;;5.63;2.22;;;;;;;;;;4164297;28;20029;-43
2021/07/24 01:32:34;;;;;;;1.88;1.42;;;;;;;;;;4167880;28;20705;-51
2021/07/24 01:34:36;;;;;;;3.20;1.85;;;;;;;;;;4164112;28;20047;-44
2021/07/24 01:36:38;;;;;;;1.98;1.73;;;;;;;;;;4163848;28;20033;-48
2021/07/24 01:38:41;;;;;;;6.50;1.83;;;;;;;;;;4168473;28;20051;-52
2021/07/24 01:40:44;;;;;;;4.28;1.70;;;;;;;;;;4166725;28;20074;-47
2021/07/24 01:42:45;;;;;;;2.47;1.50;;;;;;;;;;4165569;28;20049;-45
2021/07/24 01:44:47;;;;;;;2.75;1.40;;;;;;;;;;4165567;28;20131;-47
2021/07/24 01:46:49;;;;;;;3.35;1.23;;;;;;;;;;4164802;28;20047;-48
2021/07/24 01:49:10;;;;;;;2.92;1.50;;;;;;;;;;4164114;28;20029;-48
2021/07/24 01:53:33;;;;;;;2.33;1.20;;;;;;;;;;4166580;28;20085;-48
2021/07/24 01:55:38;;;;;;;1.00;0.90;;;;;;;;;;4166803;28;20481;-46
2021/07/24 01:57:43;;;;;;;1.85;1.13;;;;;;;;;;4167184;28;20421;-47
2021/07/24 01:59:46;;;;;;;2.30;1.10;;;;;;;;;;4166638;28;20345;-47
2021/07/24 02:01:50;;;;;;;1.42;0.85;;;;;;;;;;4167318;28;20048;-45
2021/07/24 02:04:19;;;;;;;1.33;0.90;;;;;;;;;;4165100;28;20033;-51
2021/07/24 02:06:21;;;;;;;1.70;0.90;;;;;;;;;;4160395;28;20143;-45
2021/07/24 02:08:25;;;;;;;0.90;0.80;;;;;;;;;;4159586;28;20569;-46
2021/07/24 02:10:27;;;;;;;1.33;0.90;;;;;;;;;;4163767;28;20037;-47
2021/07/24 02:12:29;;;;;;;0.95;0.85;;;;;;;;;;4163575;28;20037;-46
2021/07/24 02:14:34;;;;;;;1.08;0.80;;;;;;;;;;4161083;28;20032;-48
2021/07/24 02:16:37;;;;;;;1.73;0.50;;;;;;;;;;4165202;28;20780;-52
2021/07/24 02:18:39;;;;;;;0.55;0.55;;;;;;;;;;4163734;28;20028;-47
2021/07/24 02:20:43;;;;;;;0.50;0.50;;;;;;;;;;4163982;28;20548;-47
2021/07/24 02:22:45;;;;;;;0.70;0.63;;;;;;;;;;4167049;28;20113;-49
2021/07/24 02:24:46;;;;;;;1.02;0.60;;;;;;;;;;4166097;28;20379;-48
2021/07/24 02:26:48;;;;;;;0.70;0.70;;;;;;;;;;4164316;28;20109;-51
2021/07/24 02:28:50;;;;;;;0.60;0.60;;;;;;;;;;4167321;28;20024;-49
2021/07/24 02:30:53;;;;;;;1.30;0.50;;;;;;;;;;4166616;28;20036;-48
2021/07/24 02:32:55;;;;;;;0.75;0.55;;;;;;;;;;4169401;28;20068;-47
2021/07/24 02:34:57;;;;;;;1.35;0.60;;;;;;;;;;4162079;28;20579;-46
2021/07/24 02:36:59;;;;;;;0.68;0.60;;;;;;;;;;4163483;28;20028;-47
2021/07/24 02:39:00;;;;;;;0.57;0.40;;;;;;;;;;4155602;28;20036;-47
2021/07/24 02:41:05;;;;;;;0.50;0.50;;;;;;;;;;4164635;28;20036;-46
2021/07/24 02:43:07;;;;;;;0.50;0.50;;;;;;;;;;4163442;28;20405;-46
2021/07/24 02:45:10;;;;;;;6.13;0.85;;;;;;;;;;4167208;28;20032;-50
2021/07/24 02:47:12;;;;;;;0.65;0.65;;;;;;;;;;4164355;28;20025;-48
2021/07/24 02:49:14;;;;;;;3.17;0.80;;;;;;;;;;4164102;28;20095;-47
2021/07/24 02:51:17;;;;;;;1.23;0.70;;;;;;;;;;4162233;28;20033;-49
2021/07/24 02:53:19;;;;;;;0.50;0.50;;;;;;;;;;4163125;28;20033;-48
2021/07/24 02:55:21;;;;;;;0.70;0.70;;;;;;;;;;4164427;28;20549;-52
2021/07/24 02:57:23;;;;;;;3.88;1.05;;;;;;;;;;4161727;28;20036;-48
2021/07/24 02:59:25;;;;;;;1.10;0.90;;;;;;;;;;4162641;28;20588;-46
2021/07/24 03:01:27;;;;;;;1.27;0.73;;;;;;;;;;4163792;28;20260;-46
2021/07/24 03:03:29;;;;;;;1.08;0.70;;;;;;;;;;4161019;28;20113;-48
2021/07/24 03:05:31;;;;;;;1.35;0.60;;;18.00;54.20;;;;;;4162582;28;20916;-47
2021/07/24 03:07:33;;;;;;;0.70;0.60;;;;;;;;;;4164570;28;20525;-50
2021/07/24 03:09:35;;;;;;;0.60;0.60;;;;;;;;;;4165107;28;20036;-51
2021/07/24 03:11:37;;;;;;;0.40;0.40;;;19.10;49.10;;;;;;4166959;28;20061;-47
2021/07/24 03:13:39;;;;;;;13.32;0.95;;;20.60;45.40;;;;;;4168092;28;20531;-46
2021/07/24 03:15:41;;;;;;;0.47;0.45;;;20.80;47.60;;;;;;4165225;28;20103;-47
2021/07/24 03:17:43;;;;;;;0.60;0.60;;;20.80;47.70;;;;;;4168782;28;20039;-48
2021/07/24 03:19:46;;;;;;;11.98;0.88;;;20.60;48.10;;;;;;4164350;28;20564;-46
2021/07/24 03:21:48;;;;;;;0.50;0.50;;;20.50;48.70;;;;;;4168014;28;20025;-48
2021/07/24 03:23:50;;;;;;;0.50;0.50;;;20.40;49.20;;;;;;4165607;28;20064;-46
2021/07/24 03:25:52;;;;;;;0.70;0.70;;;20.30;49.10;;;;;;4168070;28;20549;-45
2021/07/24 03:27:54;;;;;;;0.50;0.50;;;20.20;49.10;;;;;;4171293;28;20043;-45
2021/07/24 03:29:56;;;;;;;1.73;0.88;;;20.10;49.20;;;;;;4162315;28;20565;-45
2021/07/24 03:31:59;;;;;;;2.65;0.68;;;20.00;48.40;;;;;;4165619;28;20817;-47
2021/07/24 03:34:01;;;;;;;0.50;0.50;;;20.00;48.20;;;;;;4162174;28;20597;-46
2021/07/24 03:36:04;;;;;;;0.70;0.68;;;19.90;47.50;;;;;;4168508;28;20109;-46
2021/07/24 03:38:06;;;;;;;2.13;0.60;;;19.90;47.10;;;;;;4169135;28;20043;-46
2021/07/24 03:40:09;;;;;;;0.68;0.50;;;19.80;46.80;;;;;;4161281;28;20033;-49
2021/07/24 03:42:11;;;;;;;0.70;0.50;;;19.80;47.40;;;;;;4165262;28;20043;-49
2021/07/24 03:44:13;;;;;;;1.83;0.70;;;19.80;47.10;;;;;;4162250;28;20059;-51
2021/07/24 03:46:16;;;;;;;5.28;0.90;;;19.80;48.00;;;;;;4157988;28;20049;-45
2021/07/24 03:48:18;;;;;;;2.50;0.77;;;19.70;48.20;;;;;;4160225;28;20041;-48
2021/07/24 03:50:21;;;;;;;9.00;1.13;;;19.70;48.30;;;;;;4161649;28;20040;-47
2021/07/24 03:52:23;;;;;;;11.68;1.60;;;19.70;48.40;;;;;;4161277;28;20043;-46
2021/07/24 03:54:27;;;;;;;3.63;0.80;;;19.70;48.50;;;;;;4159374;28;20927;-49
2021/07/24 03:56:29;;;;;;;8.52;0.88;;;19.70;48.70;;;;;;4160832;28;20051;-48
2021/07/24 03:58:31;;;;;;;1.77;0.77;;;19.80;49.00;;;;;;4162013;28;20032;-48
2021/07/24 04:00:48;;;;;;;2.85;0.90;;;19.80;49.20;;;;;;4161484;28;20037;-45
2021/07/24 04:02:51;;;;;;;1.23;0.85;;;19.70;49.20;;;;;;4161870;28;20091;-49
2021/07/24 04:04:53;;;;;;;1.85;0.85;;;19.80;49.40;;;;;;4162994;28;20214;-51
2021/07/24 04:06:56;;;;;;;1.17;0.70;;;19.80;49.40;;;;;;4159496;28;20028;-47
2021/07/24 04:08:59;;;;;;;2.25;0.75;;;19.80;49.60;;;;;;4162146;28;20139;-50
2021/07/24 04:11:03;;;;;;;2.80;0.70;;;19.80;49.40;;;;;;4159125;28;20032;-48
2021/07/24 04:13:06;;;;;;;2.85;0.88;;;19.90;49.40;;;;;;4159533;28;20487;-48
2021/07/24 04:15:09;;;;;;;16.45;2.08;;;19.90;49.40;;;;;;4157151;28;20496;-47
2021/07/24 04:17:11;;;;;;;;;;;19.90;49.50;;;;;;4157329;28;20583;-47
2021/07/24 04:19:13;;;;;;;3.35;0.95;;;19.90;49.60;;;;;;4161064;28;20007;-52
2021/07/24 04:21:15;;;;;;;5.75;1.42;;;19.90;49.50;;;;;;4154959;28;20875;-46
2021/07/24 04:23:18;;;;;;;3.13;0.98;;;20.00;49.50;;;;;;4163514;28;20040;-48
2021/07/24 04:25:20;;;;;;;5.03;1.02;;;20.00;49.30;;;;;;4160079;28;20037;-46
2021/07/24 04:27:22;;;;;;;0.63;0.60;;;20.00;49.20;;;;;;4163872;28;20261;-48
2021/07/24 04:29:24;;;;;;;2.63;0.60;;;20.00;49.30;;;;;;4166777;28;20401;-53
2021/07/24 04:31:26;;;;;;;1.95;0.68;;;;;;;;;;4161850;28;20658;-45
2021/07/24 04:33:28;;;;;;;2.03;0.60;;;;;;;;;;4166616;28;20028;-45
2021/07/24 04:35:30;;;;;;;1.23;0.82;;;;;;;;;;4166894;28;21006;-49
2021/07/24 04:37:32;;;;;;;2.17;0.68;;;;;;;;;;4163804;28;20480;-47
2021/07/24 04:39:34;;;;;;;1.40;0.50;;;;;;;;;;4162990;28;20751;-50
2021/07/24 04:41:36;;;;;;;1.75;0.57;;;;;;;;;;4165749;28;20094;-47
2021/07/24 04:43:38;;;;;;;1.35;0.43;;;;;;;;;;4156139;28;21146;-48
2021/07/24 04:45:44;;;;;;;1.23;0.70;;;;;;;;;;4162886;28;20428;-48
2021/07/24 04:47:46;;;;;;;0.50;0.50;;;;;;;;;;4162048;28;20948;-49
2021/07/24 04:49:53;;;;;;;0.65;0.45;;;;;;;;;;4162077;28;20056;-47
2021/07/24 04:51:55;;;;;;;0.50;0.50;;;;;;;;;;4158923;28;20040;-45
2021/07/24 04:53:58;;;;;;;0.73;0.60;;;20.10;49.40;;;;;;4156400;28;20674;-45
2021/07/24 04:56:02;;;;;;;2.17;0.50;;;20.50;49.40;;;;;;4162195;28;20109;-51
2021/07/24 04:58:09;;;;;;;0.60;0.60;;;20.50;49.00;;;;;;4163821;28;20043;-49
2021/07/24 05:00:12;;;;;;;1.13;0.70;;;20.60;49.00;;;;;;4163307;28;20446;-53
2021/07/24 05:02:19;;;;;;;1.85;0.80;;;20.60;48.90;;;;;;4159312;28;20080;-48
2021/07/24 05:04:21;;;;;;;2.00;0.85;;;20.60;48.70;;;;;;4161933;28;20834;-50
2021/07/24 05:06:24;;;;;;;2.05;0.70;;;20.70;48.50;;;;;;4159868;28;20040;-45
2021/07/24 05:08:26;;;;;;;2.72;0.85;;;20.70;47.70;;;;;;4166555;28;20093;-46
2021/07/24 05:10:29;;;;;;;1.27;0.80;;;20.70;47.80;;;;;;4161329;28;20051;-48
2021/07/24 05:12:31;;;;;;;2.45;1.10;;;20.80;49.10;;;;;;4163978;28;21204;-48
2021/07/24 05:14:33;;;;;;;3.63;1.95;;;20.80;51.40;;;;;;4162958;28;20985;-48
2021/07/24 05:16:35;;;;;;;4.38;1.48;;;20.90;51.60;;;;;;4166583;28;20872;-48
2021/07/24 05:18:37;;;;;;;2.70;1.15;;;20.90;50.80;;;;;;4164966;28;20661;-49
2021/07/24 05:20:39;;;;;;;1.75;0.90;;;20.90;50.80;;;;;;4164797;28;20645;-50
2021/07/24 05:22:41;;;;;;;1.42;0.77;;;20.90;50.60;;;;;;4149686;28;20442;-48
2021/07/24 05:24:46;;;;;;;1.75;0.60;;;21.00;50.40;;;;;;4163718;28;20621;-47
2021/07/24 05:26:48;;;;;;;0.80;0.50;;;21.00;50.40;;;;;;4165140;28;20028;-46
2021/07/24 05:28:50;;;;;;;0.60;0.60;;;21.00;50.70;;;;;;4158898;28;20464;-50
2021/07/24 05:30:52;;;;;;;0.63;0.60;;;21.00;50.50;;;;;;4153229;28;20082;-46
2021/07/24 05:32:55;;;;;;;0.50;0.50;;;21.00;50.40;;;;;;4166293;28;20339;-46
2021/07/24 05:34:57;;;;;;;0.65;0.60;;;21.00;50.20;;;;;;4163117;28;20093;-45
2021/07/24 05:36:59;;;;;;;0.77;0.60;;;21.00;50.10;;;;;;4155599;28;20032;-44
2021/07/24 05:39:01;;;;;;;1.08;0.77;;;21.00;49.00;;;;;;4167466;28;20115;-43
2021/07/24 05:41:03;;;;;;;0.60;0.52;;;21.00;47.20;;;;;;4164336;28;20028;-46
2021/07/24 05:43:05;;;;;;;0.57;0.57;;;20.90;46.80;;;;;;4162199;28;20230;-45
2021/07/24 05:45:08;;;;;;;1.38;0.50;;;20.90;47.30;;;;;;4164289;28;20447;-45
2021/07/24 05:47:10;;;;;;;0.47;0.40;;;20.90;47.60;;;;;;4164194;28;20139;-49
2021/07/24 05:49:12;;;;;;;0.47;0.47;;;20.90;47.80;;;;;;4164436;28;20028;-46
2021/07/24 05:51:14;;;;;;;0.30;0.30;;;20.90;48.00;;;;;;4164846;28;20424;-46
2021/07/24 05:53:16;;;;;;;0.55;0.47;;;20.90;48.10;;;;;;4161868;28;20540;-51
2021/07/24 05:55:19;;;;;;;0.68;0.50;;;20.80;48.00;;;;;;4162176;28;20033;-50
2021/07/24 05:57:21;;;;;;;0.40;0.40;;;20.80;48.30;;;;;;4164000;28;20386;-51
2021/07/24 05:59:23;;;;;;;0.40;0.40;;;20.80;48.10;;;;;;4164187;28;20587;-45
2021/07/24 06:01:25;;;;;;;0.45;0.45;;;20.80;48.10;;;;;;4164050;28;20223;-47
2021/07/24 06:03:27;;;;;;;0.70;0.57;;;20.80;48.10;;;;;;4156594;28;20447;-45
2021/07/24 06:05:29;;;;;;;0.35;0.35;;;20.70;48.00;;;;;;4165478;28;20106;-46
2021/07/24 06:07:32;;;;;;;0.68;0.68;;;20.70;48.00;;;;;;4166036;28;20288;-47
2021/07/24 06:09:34;;;;;;;0.40;0.40;;;20.70;48.00;;;;;;4165711;28;20085;-47
2021/07/24 06:11:36;;;;;;;1.53;0.43;;;20.70;48.10;;;;;;4162821;28;20452;-46
2021/07/24 06:13:38;;;;;;;1.27;0.50;;;20.60;47.90;;;;;;4165672;28;20040;-45
2021/07/24 06:15:44;;;;;;;1.27;0.40;;;20.60;48.00;;;;;;4161364;28;20512;-46
2021/07/24 06:17:46;;;;;;;0.82;0.50;;;20.60;48.10;;;;;;4160150;28;20036;-45
2021/07/24 06:19:48;;;;;;;1.95;0.40;;;20.50;48.10;;;;;;4163963;28;20438;-47
2021/07/24 06:21:52;;;;;;;0.57;0.50;;;20.50;48.20;;;;;;4161942;28;20185;-45
2021/07/24 06:23:54;;;;;;;0.40;0.40;;;20.50;48.30;;;;;;4159403;28;20394;-46
2021/07/24 06:25:56;;;;;;;0.40;0.40;;;20.40;48.40;;;;;;4160844;28;20067;-52
2021/07/24 06:27:58;;;;;;;0.88;0.50;;;20.40;48.40;;;;;;4162456;28;20033;-49
2021/07/24 06:30:00;;;;;;;1.10;0.60;;;20.40;48.40;;;;;;4160771;28;20024;-51
2021/07/24 06:32:03;;;;;;;2.38;0.47;;;20.30;48.40;;;;;;4164779;28;20772;-50
2021/07/24 06:34:06;;;;;;;0.45;0.45;;;20.30;48.50;;;;;;4158778;28;20912;-49
2021/07/24 06:36:08;;;;;;;0.50;0.50;;;20.30;48.50;;;;;;4159422;28;20036;-49
2021/07/24 06:38:12;;;;;;;0.30;0.30;;;20.30;48.60;;;;;;4158813;28;20855;-48
2021/07/24 06:40:14;;;;;;;0.40;0.40;;;20.30;48.00;;;;;;4165102;28;20761;-46
2021/07/24 06:42:16;;;;;;;0.90;0.50;;;20.20;46.10;;;;;;4160921;28;20054;-49
2021/07/24 06:44:20;;;;;;;0.40;0.40;;;20.40;44.90;;;;;;4162551;28;20595;-44
2021/07/24 06:46:23;;;;;;;0.50;0.50;;;20.70;43.80;;;;;;4161872;28;20090;-46
2021/07/24 06:48:25;;;;;;;1.02;0.60;;;21.00;42.70;;;;;;4163017;28;20037;-47
2021/07/24 06:50:28;;;;;;;0.70;0.50;;;21.30;43.60;;;;;;4163207;28;20356;-49
2021/07/24 06:52:30;;;;;;;0.43;0.43;;;21.30;42.50;;;;;;4160413;28;20186;-48
2021/07/24 06:54:32;;;;;;;0.40;0.40;;;21.30;41.90;;;;;;4159223;28;20436;-48
2021/07/24 06:56:34;;;;;;;0.40;0.40;;;21.40;41.90;;;;;;4159316;28;20499;-48
2021/07/24 06:58:36;;;;;;;0.40;0.40;;;21.60;41.30;;;;;;4158730;28;20033;-47
2021/07/24 07:00:38;;;;;;;0.68;0.65;;;21.80;40.80;;;;;;4155344;28;20388;-49
2021/07/24 07:02:40;;;;;;;0.45;0.45;;;22.00;42.90;;;;;;4155077;28;20099;-47
2021/07/24 07:04:42;;;;;;;0.45;0.40;;;22.00;43.10;;;;;;4156819;28;20644;-45
2021/07/24 07:06:44;;;;;;;1.00;0.60;;;21.90;43.30;;;;;;4154416;28;20029;-49
2021/07/24 07:08:46;;;;;;;0.70;0.70;;;21.80;42.50;;;;;;4157496;28;20025;-47
2021/07/24 07:10:48;;;;;;;2.10;1.27;;;21.80;41.60;;;;;;4158572;28;20044;-45
2021/07/24 07:12:51;;;;;;;5.03;2.08;;;21.80;41.50;;;;;;4157742;28;20162;-47
2021/07/24 07:14:53;;;;;;;4.97;2.63;;;22.00;41.30;;;;;;4163382;28;20036;-47
2021/07/24 07:16:55;;;;;;;3.33;1.95;;;22.20;41.30;;;;;;4162270;28;20582;-48
2021/07/24 07:18:57;;;;;;;4.22;2.30;;;22.20;42.20;;;;;;4161048;28;20037;-49
2021/07/24 07:21:00;;;;;;;3.65;2.03;;;22.20;42.30;;;;;;4162714;28;20028;-48
2021/07/24 07:23:02;;;;;;;5.23;2.33;;;22.00;42.40;;;;;;4163777;28;20037;-47
2021/07/24 07:25:05;;;;;;;3.65;2.10;;;21.90;42.70;;;;;;4167459;28;20441;-46
2021/07/24 07:27:07;;;;;;;5.45;3.45;;;21.80;42.80;;;;;;4165201;28;21453;-49
2021/07/24 07:29:09;;;;;;;6.60;4.25;;;21.80;42.50;;;;;;4169628;28;20360;-48
2021/07/24 07:31:11;;;;;;;7.13;4.13;;;21.70;41.70;;;;;;4167713;28;20033;-46
2021/07/24 07:33:15;;;;;;;6.47;4.43;;;21.80;41.30;;;;;;4170127;28;20295;-46
2021/07/24 07:35:17;;;;;;;8.55;4.80;;;22.00;41.30;;;;;;4162831;28;20489;-49
2021/07/24 07:37:19;;;;;;;7.40;3.58;;;22.10;41.40;;;;;;4163447;28;20115;-46
2021/07/24 07:39:21;;;;;;;6.65;3.40;;;22.00;41.70;;;;;;4165486;28;20025;-47
2021/07/24 07:41:23;;;;;;;4.65;3.05;;;21.90;42.40;;;;;;4162059;28;20123;-48
2021/07/24 07:43:26;;;;;;;4.88;3.08;;;21.80;42.60;;;;;;4165907;28;20929;-50
2021/07/24 07:45:31;;;;;;;5.75;3.30;;;21.80;42.70;;;;;;4165119;28;20028;-46
2021/07/24 07:47:35;;;;;;;6.70;3.75;;;21.70;43.00;;;;;;4166487;28;20032;-48
2021/07/24 07:49:39;;;;;;;5.22;3.33;;;21.70;42.90;;;;;;4163352;28;20036;-46
2021/07/24 07:51:41;;;;;;;5.30;2.92;;;21.90;42.40;;;;;;4163689;28;20465;-46
2021/07/24 07:53:43;;;;;;;4.75;2.47;;;22.10;43.00;;;;;;4165996;28;20094;-49
2021/07/24 07:55:45;;;;;;;4.38;2.78;;;22.20;43.60;;;;;;4162683;28;20861;-49
2021/07/24 07:57:47;;;;;;;3.58;2.15;;;22.10;43.70;;;;;;4154656;28;20426;-53
2021/07/24 07:59:49;;;;;;;4.60;2.00;;;22.10;43.90;;;;;;4158527;28;20457;-52
2021/07/24 08:01:51;;;;;;;4.88;2.60;;;22.00;43.60;;;;;;4154184;28;20045;-53
2021/07/24 08:03:54;;;;;;;5.07;2.47;;;22.00;43.60;;;;;;4158034;28;20724;-51
2021/07/24 08:05:56;;;;;;;5.13;2.53;;;21.90;43.50;;;;;;4158827;28;20030;-50
2021/07/24 08:07:58;;;;;;;4.95;2.40;;;21.80;43.70;;;;;;4158553;28;20528;-48
2021/07/24 08:10:00;;;;;;;4.80;2.10;;;21.70;43.70;;;;;;4158035;28;20658;-47
2021/07/24 08:12:03;;;;;;;3.72;2.28;;;21.80;43.20;;;;;;4157298;28;20553;-51
2021/07/24 08:14:05;;;;;;;3.33;2.00;;;22.10;41.90;;;;;;4160765;28;20372;-48
2021/07/24 08:16:15;;;;;;;2.50;1.77;;;22.40;41.60;;;;;;4160651;28;21762;-50
2021/07/24 08:18:17;;;;;;;3.28;2.20;;;22.90;40.80;;;;;;4166041;28;20269;-53
2021/07/24 08:20:19;;;;;;;2.53;1.75;;;23.10;41.60;;;;;;4162456;28;20067;-51
2021/07/24 08:22:21;;;;;;;2.38;1.60;;;23.20;42.70;;;;;;4160541;28;20095;-47
2021/07/24 08:24:23;;;;;;;2.90;1.70;;;23.00;42.50;;;;;;4158349;28;20070;-51
2021/07/24 08:26:25;;;;;;;2.55;1.52;;;22.90;42.80;;;;;;4160904;28;20471;-49
2021/07/24 08:28:29;;;;;;;2.63;1.80;;;22.80;42.70;;;;;;4162568;28;20112;-49
2021/07/24 08:30:31;;;;;;;;;;;22.70;43.10;;;;;;4162184;28;20024;-47
2021/07/24 08:32:34;;;;;;;2.22;1.60;;;22.60;43.30;;;;;;4163197;28;19916;-46
2021/07/24 08:34:37;;;;;;;2.70;1.45;;;22.50;42.40;;;;;;4166249;28;20024;-46
2021/07/24 08:36:39;;;;;;;1.90;1.50;;;22.60;41.70;;;;;;4157643;28;20135;-48
2021/07/24 08:38:41;;;;;;;2.30;1.47;;;22.80;40.90;;;;;;4164188;28;20032;-49
2021/07/24 08:40:47;;;;;;;2.25;1.60;;;23.10;40.30;;;;;;4163854;28;20295;-45
2021/07/24 08:42:49;;;;;;;2.15;1.40;;;23.50;39.60;;;;;;4163377;28;20123;-46
2021/07/24 08:44:52;;;;;;;1.90;1.40;;;23.70;41.00;;;;;;4164316;28;20501;-51
2021/07/24 08:46:55;;;;;;;1.43;1.27;;;23.60;41.70;;;;;;4163737;28;20091;-49
2021/07/24 08:48:58;;;;;;;2.05;1.48;;;23.50;41.90;;;;;;4165114;28;20135;-49
2021/07/24 08:51:02;;;;;;;1.63;1.30;;;23.40;42.10;;;;;;4161000;28;20029;-46
2021/07/24 08:53:08;;;;;;;2.13;1.30;;;23.30;42.30;;;;;;4160650;28;20032;-46
2021/07/24 08:55:11;;;;;;;1.40;1.00;;;23.10;42.50;;;;;;4164793;28;20032;-47
2021/07/24 08:57:17;;;;;;;2.03;1.55;;;23.00;42.50;;;;;;4160858;28;20912;-47
2021/07/24 08:59:21;;;;;;;2.25;1.60;;;22.90;41.90;;;;;;4157495;28;20038;-51
2021/07/24 09:01:24;;;;;;;2.50;1.60;;;23.00;40.90;;;;;;4163691;28;20073;-47
2021/07/24 09:03:28;;;;;;;2.20;1.60;;;23.20;40.20;;;;;;4160513;28;20102;-49
2021/07/24 09:05:31;;;;;;;3.38;1.63;;;23.50;39.40;;;;;;4159000;28;20760;-46
2021/07/24 09:07:36;;;;;;;4.47;1.60;;;23.70;40.80;;;;;;4162864;28;20464;-48
2021/07/24 09:09:39;;;;;;;3.42;1.20;;;23.70;41.60;;;;;;4163461;28;20572;-48
2021/07/24 09:11:41;;;;;;;;;;;23.60;41.70;;;;;;4166138;28;20165;-50
2021/07/24 09:13:43;;;;;;;1.50;1.23;;;23.50;41.50;;;;;;4167958;28;20339;-49
2021/07/24 09:15:47;;;;;;;1.17;1.00;;;23.40;41.90;;;;;;4164527;28;20033;-46
2021/07/24 09:17:49;;;;;;;1.55;1.05;;;23.30;41.80;;;;;;4164881;28;20032;-48
2021/07/24 09:19:52;;;;;;;1.70;1.23;;;23.20;42.00;;;;;;4161719;28;20516;-48
2021/07/24 09:21:54;;;;;;;1.90;1.30;;;23.10;41.30;;;;;;4160259;28;20473;-51
2021/07/24 09:24:21;;;;;;;1.40;1.30;;;23.20;41.10;;;;;;4160720;28;20147;-49
2021/07/24 09:26:36;;;;;;;3.00;1.33;;;23.40;39.70;;;;;;4159951;28;20032;-50
2021/07/24 09:28:39;;;;;;;1.70;1.30;;;23.80;39.10;;;;;;4163340;28;20633;-49
2021/07/24 09:30:41;;;;;;;3.55;1.20;;;23.90;40.10;;;;;;4156889;28;20044;-47
2021/07/24 09:33:00;;;;;;;1.77;1.38;;;23.90;40.50;;;;;;4162569;28;20098;-49
2021/07/24 09:35:02;;;;;;;1.92;1.52;;;23.80;40.30;;;;;;4159195;28;20024;-48
2021/07/24 09:37:26;;;;;;;1.35;1.10;;;23.60;40.90;;;;;;4164194;28;20036;-48
2021/07/24 09:39:29;;;;;;;2.28;1.20;;;23.50;41.00;;;;;;4160837;28;20509;-50
2021/07/24 09:41:31;;;;;;;1.60;1.20;;;23.40;41.30;;;;;;4159446;28;20033;-52
2021/07/24 09:43:38;;;;;;;1.73;1.45;;;23.30;40.60;;;;;;4154892;28;20461;-46
2021/07/24 09:45:41;;;;;;;1.83;1.52;;;23.30;39.90;;;;;;4157340;28;20031;-49
2021/07/24 09:47:43;;;;;;;1.92;1.50;;;23.50;39.10;;;;;;4159822;28;20066;-46
2021/07/24 09:49:50;;;;;;;2.20;1.58;;;23.70;39.30;;;;;;4160418;28;20111;-56
2021/07/24 09:51:57;;;;;;;1.77;1.20;;;23.80;40.20;;;;;;4161876;28;20524;-54
2021/07/24 09:54:02;;;;;;;1.52;1.25;;;23.70;40.60;;;;;;4143851;28;20040;-51
2021/07/24 09:56:05;;;;;;;1.30;1.10;;;23.60;40.40;;;;;;4161237;28;20037;-47
2021/07/24 09:58:20;;;;;;;1.25;1.15;;;23.50;40.60;;;;;;4161433;28;20038;-50
2021/07/24 10:00:27;;;;;;;0.98;0.90;;;23.40;40.80;;;;;;4158369;28;20660;-47
2021/07/24 10:02:33;;;;;;;1.73;1.30;;;23.30;41.20;;;;;;4161043;28;20052;-45
2021/07/24 10:04:40;;;;;;;2.03;1.40;;;23.20;40.60;;;;;;4162567;28;20032;-46
2021/07/24 10:06:44;;;;;;;1.77;1.52;;;23.20;39.90;;;;;;4165227;28;20124;-47
2021/07/24 10:08:50;;;;;;;2.17;1.60;;;23.40;39.10;;;;;;4158893;28;20250;-46
2021/07/24 10:10:52;;;;;;;1.90;1.48;;;23.60;39.20;;;;;;4159383;28;20032;-48
2021/07/24 10:12:55;;;;;;;1.92;1.00;;;23.70;40.00;;;;;;4162002;28;20078;-49
2021/07/24 10:14:59;;;;;;;1.88;1.58;;;23.60;40.20;;;;;;4164828;28;20702;-49
2021/07/24 10:17:02;;;;;;;1.50;1.10;;;23.60;40.40;;;;;;4164704;28;20446;-45
2021/07/24 10:19:05;;;;;;;1.15;1.05;;;23.50;40.60;;;;;;4157645;28;20033;-45
2021/07/24 10:21:07;;;;;;;;;;;23.40;41.50;;;;;;4157686;28;20117;-47
2021/07/24 10:23:11;;;;;;;1.40;1.30;;;23.30;41.10;;;;;;4159311;28;20005;-49
2021/07/24 10:25:20;;;;;;;1.63;1.38;;;23.20;40.50;;;;;;4161256;28;20066;-48
2021/07/24 10:27:30;;;;;;;2.15;1.45;;;23.20;39.90;;;;;;4163727;28;20263;-49
2021/07/24 10:30:04;;;;;;;1.75;1.38;;;23.40;39.10;;;;;;4156237;28;20388;-47
2021/07/24 10:32:11;;;;;;;1.42;1.25;;;23.50;39.50;;;;;;4157400;28;20075;-49
2021/07/24 10:34:15;;;;;;;1.27;1.17;;;23.50;40.10;;;;;;4158721;28;20032;-48
2021/07/24 10:36:18;;;;;;;1.15;0.98;;;23.50;40.20;;;;;;4161869;28;20384;-48
2021/07/24 10:38:28;;;;;;;;;;;23.40;40.50;;;;;;4160373;28;20401;-49
2021/07/24 10:40:32;;;;;;;1.00;0.90;;;23.30;40.70;;;;;;4161801;28;20027;-49
2021/07/24 10:42:38;;;;;;;1.25;1.10;;;23.30;41.10;;;;;;4162571;28;21672;-48
2021/07/24 10:44:42;;;;;;;1.42;1.25;;;23.20;40.40;;;;;;4160559;28;20032;-51
2021/07/24 10:46:44;;;;;;;2.28;1.48;;;23.10;39.70;;;;;;4166180;28;20029;-50
2021/07/24 10:48:46;;;;;;;1.80;1.30;;;23.30;39.00;;;;;;4161528;28;20099;-50
2021/07/24 10:50:54;;;;;;;4.20;1.40;;;23.50;39.20;;;;;;4163990;28;20078;-46
2021/07/24 10:53:10;;;;;;;3.67;1.70;;;23.50;40.40;;;;;;4161498;28;20067;-45
2021/07/24 10:55:14;;;;;;;3.97;1.23;;;23.50;40.30;;;;;;4162284;28;20079;-50
2021/07/24 10:57:50;;;;;;;2.15;1.30;;;23.40;40.40;;;;;;4165088;28;20109;-51
2021/07/24 11:00:30;;;;;;;1.70;1.40;;;23.30;41.10;;;;;;4162895;28;20036;-51
2021/07/24 11:02:52;;;;;;;1.15;1.05;;;23.20;40.60;;;;;;4161699;28;20509;-52
2021/07/24 11:04:57;;;;;;;2.33;1.40;;;23.20;41.20;;;;;;4163943;28;20020;-51
2021/07/24 11:07:14;;;;;;;2.85;1.70;;;23.10;40.40;;;;;;4158597;28;20036;-47
2021/07/24 11:09:28;;;;;;;1.42;1.30;;;23.20;39.80;;;;;;4167452;28;20055;-51
2021/07/24 11:12:09;;;;;;;2.17;1.40;;;23.30;39.10;;;;;;4163371;28;20032;-47
2021/07/24 11:14:30;;;;;;;2.17;1.67;;;23.60;39.80;;;;;;4163403;28;20040;-46